createdAt,value
2019-02-20T00:03:41.273Z,70.23
2019-02-20T00:06:05.674Z,71.14
2019-02-20T00:08:30.179Z,71.12
2019-02-20T00:10:54.655Z,70.36
2019-02-20T00:13:19.064Z,70.37
2019-02-20T00:15:43.490Z,70.57
2019-02-20T00:18:13.601Z,70.60
2019-02-20T00:20:38.035Z,70.46
2019-02-20T00:23:02.447Z,70.04
2019-02-20T00:25:26.900Z,69.85
2019-02-20T00:27:51.296Z,70.20
2019-02-20T00:30:15.745Z,70.06
2019-02-20T00:32:40.143Z,70.81
2019-02-20T00:38:01.884Z,70.56
2019-02-20T00:40:26.268Z,70.59
2019-02-20T00:42:50.673Z,71.04
2019-02-20T00:48:09.574Z,72.07
2019-02-20T00:53:25.007Z,71.53
2019-02-20T00:55:51.051Z,71.91
2019-02-20T00:58:15.458Z,72.23
2019-02-20T01:00:40.029Z,72.53
2019-02-20T01:08:37.921Z,72.13
2019-02-20T01:11:02.336Z,72.09
2019-02-20T01:13:26.731Z,72.26
2019-02-20T01:15:51.223Z,72.27
2019-02-20T01:20:51.397Z,71.88
2019-02-20T01:23:15.945Z,72.35
2019-02-20T01:28:16.662Z,72.08
2019-02-20T01:30:41.089Z,71.85
2019-02-20T01:33:05.569Z,71.79
2019-02-20T01:35:30.005Z,72.01
2019-02-20T01:40:30.648Z,72.13
2019-02-20T01:45:31.428Z,71.85
2019-02-20T01:47:55.852Z,71.08
2019-02-20T01:50:20.246Z,71.41
2019-02-20T01:52:44.660Z,70.96
2019-02-20T01:55:09.213Z,70.53
2019-02-20T01:57:33.638Z,70.58
2019-02-20T01:59:58.045Z,70.14
2019-02-20T02:02:22.485Z,70.74
2019-02-20T02:04:46.883Z,70.67
2019-02-20T02:07:11.284Z,70.71
2019-02-20T02:09:35.701Z,71.44
2019-02-20T02:12:00.106Z,71.01
2019-02-20T02:14:24.543Z,70.80
2019-02-20T02:16:48.957Z,70.80
2019-02-20T02:19:13.384Z,70.27
2019-02-20T02:21:37.797Z,70.10
2019-02-20T02:24:02.220Z,70.38
2019-02-20T02:31:42.191Z,70.28
2019-02-20T02:34:06.713Z,69.60
2019-02-20T02:36:31.118Z,69.38
2019-02-20T02:38:55.522Z,69.79
2019-02-20T02:41:19.948Z,69.49
2019-02-20T02:43:44.417Z,69.31
2019-02-20T02:46:08.902Z,69.06
2019-02-20T02:48:33.301Z,67.97
2019-02-20T02:50:57.741Z,68.28
2019-02-20T02:53:30.399Z,67.63
2019-02-20T02:55:54.010Z,67.94
2019-02-20T02:58:18.422Z,67.82
2019-02-20T03:00:42.931Z,68.56
2019-02-20T03:03:07.339Z,68.38
2019-02-20T03:08:08.390Z,68.51
2019-02-20T03:10:32.823Z,68.83
2019-02-20T03:12:57.224Z,68.33
2019-02-20T03:15:21.642Z,68.73
2019-02-20T03:17:46.153Z,68.30
2019-02-20T03:22:46.479Z,68.32
2019-02-20T03:25:10.946Z,69.25
2019-02-20T03:27:35.367Z,69.17
2019-02-20T03:29:59.771Z,69.04
2019-02-20T03:32:24.216Z,68.39
2019-02-20T03:34:48.619Z,68.21
2019-02-20T03:37:13.017Z,67.90
2019-02-20T03:39:37.440Z,68.32
2019-02-20T03:42:01.845Z,68.26
2019-02-20T03:44:26.276Z,69.18
2019-02-20T03:46:50.695Z,68.81
2019-02-20T03:49:15.106Z,69.72
2019-02-20T03:51:39.586Z,69.46
2019-02-20T03:54:04.163Z,69.22
2019-02-20T03:59:04.688Z,69.46
2019-02-20T04:01:29.135Z,68.30
2019-02-20T04:03:53.535Z,68.40
2019-02-20T04:06:17.958Z,67.90
2019-02-20T04:08:48.389Z,68.80
2019-02-20T04:11:12.831Z,68.65
2019-02-20T04:13:37.241Z,68.90
2019-02-20T04:16:01.652Z,69.13
2019-02-20T04:18:26.051Z,68.62
2019-02-20T04:20:50.484Z,69.16
2019-02-20T04:23:14.894Z,69.49
2019-02-20T04:28:15.629Z,69.77
2019-02-20T04:30:40.046Z,69.29
2019-02-20T04:33:04.539Z,69.35
2019-02-20T04:35:28.933Z,69.35
2019-02-20T04:40:38.438Z,68.82
2019-02-20T04:48:14.788Z,68.93
2019-02-20T04:50:39.269Z,69.20
2019-02-20T04:53:03.696Z,69.31
2019-02-20T04:55:28.169Z,69.41
2019-02-20T04:58:13.384Z,69.32
2019-02-20T05:03:14.306Z,69.05
2019-02-20T05:05:38.714Z,69.63
2019-02-20T05:10:38.874Z,69.18
2019-02-20T05:13:03.307Z,69.70
2019-02-20T05:15:27.756Z,70.03
2019-02-20T05:17:52.179Z,69.83
2019-02-20T05:20:16.598Z,69.62
2019-02-20T05:22:41.012Z,69.88
2019-02-20T05:28:01.922Z,69.95
2019-02-20T05:33:02.850Z,69.88
2019-02-20T05:38:03.434Z,69.75
2019-02-20T05:40:27.957Z,69.79
2019-02-20T05:42:52.343Z,70.34
2019-02-20T05:45:16.792Z,70.37
2019-02-20T05:47:41.191Z,70.45
2019-02-20T05:53:02.435Z,70.97
2019-02-20T05:55:39.598Z,70.80
2019-02-20T05:58:03.991Z,71.35
2019-02-20T06:03:07.532Z,71.13
2019-02-20T06:05:31.988Z,71.17
2019-02-20T06:07:56.405Z,71.56
2019-02-20T06:10:20.783Z,71.06
2019-02-20T06:12:45.215Z,71.56
2019-02-20T06:18:06.082Z,72.56
2019-02-20T06:28:20.133Z,71.35
2019-02-20T06:30:44.543Z,71.73
2019-02-20T06:33:08.985Z,71.25
2019-02-20T06:40:45.226Z,70.94
2019-02-20T06:45:45.665Z,71.38
2019-02-20T06:48:10.107Z,70.84
2019-02-20T06:50:34.516Z,71.17
2019-02-20T06:55:35.408Z,71.30
2019-02-20T07:00:35.835Z,70.18
2019-02-20T07:03:00.256Z,70.93
2019-02-20T07:05:44.023Z,70.54
2019-02-20T07:14:40.922Z,69.90
2019-02-20T07:17:43.920Z,70.09
2019-02-20T07:20:46.951Z,69.90
2019-02-20T07:26:47.225Z,70.44
2019-02-20T07:32:08.633Z,70.61
2019-02-20T07:37:09.545Z,70.96
2019-02-20T07:39:33.954Z,71.59
2019-02-20T07:41:58.454Z,70.65
2019-02-20T07:44:22.851Z,70.86
2019-02-20T07:46:47.288Z,70.24
2019-02-20T07:49:11.697Z,70.11
2019-02-20T07:51:36.138Z,69.67
2019-02-20T07:54:00.543Z,69.79
2019-02-20T07:56:25.029Z,69.69
2019-02-20T07:58:49.506Z,69.26
2019-02-20T08:01:13.953Z,69.50
2019-02-20T08:06:14.407Z,70.34
2019-02-20T08:08:38.848Z,70.47
2019-02-20T08:11:03.437Z,70.07
2019-02-20T08:13:27.826Z,69.51
2019-02-20T08:15:52.220Z,69.83
2019-02-20T08:18:16.649Z,69.14
2019-02-20T08:20:41.050Z,69.39
2019-02-20T08:25:41.515Z,69.44
2019-02-20T08:28:06.075Z,69.37
2019-02-20T08:30:30.480Z,69.71
2019-02-20T08:35:30.984Z,69.70
2019-02-20T08:37:55.391Z,69.61
2019-02-20T08:42:59.003Z,69.24
2019-02-20T08:45:23.493Z,69.80
2019-02-20T08:47:53.389Z,69.41
2019-02-20T08:50:17.970Z,69.79
2019-02-20T08:52:42.367Z,69.47
2019-02-20T09:03:15.968Z,69.70
2019-02-20T09:05:40.410Z,69.26
2019-02-20T09:08:04.908Z,68.98
2019-02-20T09:10:29.326Z,68.58
2019-02-20T09:12:53.778Z,69.46
2019-02-20T09:15:18.169Z,68.95
2019-02-20T09:17:42.595Z,68.58
2019-02-20T09:20:14.153Z,69.14
2019-02-20T09:22:39.608Z,68.79
2019-02-20T09:30:43.582Z,69.00
2019-02-20T09:33:08.025Z,68.86
2019-02-20T09:35:32.446Z,68.80
2019-02-20T09:37:56.879Z,68.26
2019-02-20T09:43:00.188Z,68.27
2019-02-20T09:48:01.102Z,67.84
2019-02-20T09:50:25.512Z,67.84
2019-02-20T09:52:52.316Z,67.39
2019-02-20T09:55:34.821Z,67.24
2019-02-20T09:57:59.259Z,67.71
2019-02-20T10:00:23.681Z,67.30
2019-02-20T10:02:48.092Z,68.09
2019-02-20T10:05:12.590Z,68.10
2019-02-20T10:07:37.068Z,67.04
2019-02-20T10:10:01.505Z,66.45
2019-02-20T10:12:25.905Z,65.65
2019-02-20T10:14:50.351Z,65.51
2019-02-20T10:19:53.822Z,65.56
2019-02-20T10:22:18.291Z,64.92
2019-02-20T10:24:42.731Z,64.80
2019-02-20T10:27:07.155Z,64.74
2019-02-20T10:29:31.595Z,65.34
2019-02-20T10:31:56.025Z,64.84
2019-02-20T10:34:20.435Z,63.94
2019-02-20T10:39:26.844Z,64.01
2019-02-20T10:41:51.364Z,64.17
2019-02-20T10:44:15.782Z,64.19
2019-02-20T10:46:40.287Z,63.77
2019-02-20T10:51:41.116Z,63.40
2019-02-20T10:54:05.598Z,63.42
2019-02-20T10:56:30.113Z,63.56
2019-02-20T10:58:54.522Z,63.26
2019-02-20T11:01:19.037Z,62.77
2019-02-20T11:03:43.582Z,62.78
2019-02-20T11:06:08.088Z,62.85
2019-02-20T11:08:32.578Z,62.93
2019-02-20T11:10:57.015Z,61.47
2019-02-20T11:18:33.892Z,62.01
2019-02-20T11:20:58.344Z,61.70
2019-02-20T11:23:22.767Z,62.57
2019-02-20T11:25:47.222Z,62.87
2019-02-20T11:28:11.715Z,62.38
2019-02-20T11:30:36.196Z,63.32
2019-02-20T11:33:00.645Z,63.43
2019-02-20T11:35:25.079Z,64.14
2019-02-20T11:37:49.602Z,62.58
2019-02-20T11:40:14.189Z,61.98
2019-02-20T11:42:38.630Z,62.21
2019-02-20T11:47:39.137Z,62.35
2019-02-20T11:50:14.796Z,61.84
2019-02-20T11:52:50.110Z,61.50
2019-02-20T11:58:11.715Z,58.66
2019-02-20T12:00:36.193Z,57.15
2019-02-20T12:03:00.644Z,57.08
2019-02-20T12:05:25.054Z,55.81
2019-02-20T12:07:49.578Z,55.28
2019-02-20T12:13:11.065Z,53.81
2019-02-20T12:15:35.558Z,51.36
2019-02-20T12:18:00.014Z,47.98
2019-02-20T12:20:24.424Z,48.39
2019-02-20T12:22:48.939Z,45.75
2019-02-20T12:25:13.349Z,47.79
2019-02-20T12:27:37.911Z,46.05
2019-02-20T12:30:02.399Z,44.65
2019-02-20T12:35:03.023Z,44.96
2019-02-20T12:37:27.447Z,45.85
2019-02-20T12:39:51.890Z,48.48
2019-02-20T12:44:52.423Z,50.91
2019-02-20T12:47:37.627Z,49.24
2019-02-20T12:50:02.061Z,43.78
2019-02-20T12:55:03.133Z,43.04
2019-02-20T12:57:27.681Z,44.94
2019-02-20T12:59:52.124Z,43.20
2019-02-20T13:02:16.570Z,44.22
2019-02-20T13:04:41.029Z,41.15
2019-02-20T13:09:41.561Z,47.67
2019-02-20T13:12:05.986Z,53.26
2019-02-20T13:19:43.318Z,54.81
2019-02-20T13:22:07.747Z,55.76
2019-02-20T13:24:32.311Z,49.82
2019-02-20T13:26:56.749Z,48.76
2019-02-20T13:29:21.168Z,44.44
2019-02-20T13:31:45.617Z,45.55
2019-02-20T13:34:10.032Z,45.80
2019-02-20T13:39:22.615Z,46.03
2019-02-20T13:41:47.119Z,47.72
2019-02-20T13:44:13.005Z,50.92
2019-02-20T13:46:43.401Z,51.82
2019-02-20T13:49:15.334Z,49.01
2019-02-20T13:51:39.844Z,49.21
2019-02-20T13:54:04.338Z,48.05
2019-02-20T13:56:28.870Z,51.25
2019-02-20T14:01:29.312Z,53.74
2019-02-20T14:09:08.880Z,52.99
2019-02-20T14:11:33.398Z,48.74
2019-02-20T14:13:57.845Z,51.58
2019-02-20T14:16:22.242Z,50.39
2019-02-20T14:18:46.756Z,49.38
2019-02-20T14:21:11.161Z,49.57
2019-02-20T14:23:35.615Z,50.65
2019-02-20T14:26:00.405Z,48.80
2019-02-20T14:28:24.928Z,47.70
2019-02-20T14:30:49.334Z,48.38
2019-02-20T14:33:13.791Z,50.27
2019-02-20T14:35:38.193Z,47.68
2019-02-20T14:38:02.634Z,48.82
2019-02-20T14:40:27.035Z,51.06
2019-02-20T14:42:53.266Z,50.72
2019-02-20T14:45:23.003Z,48.76
2019-02-20T14:47:47.400Z,51.88
2019-02-20T14:50:22.849Z,50.70
2019-02-20T14:57:59.815Z,46.85
2019-02-20T15:00:24.359Z,47.63
2019-02-20T15:02:48.749Z,43.60
2019-02-20T15:05:13.579Z,41.64
2019-02-20T15:07:37.974Z,45.56
2019-02-20T15:10:02.482Z,45.87
2019-02-20T15:12:26.870Z,46.88
2019-02-20T15:14:51.297Z,46.57
2019-02-20T15:17:15.696Z,49.02
2019-02-20T15:19:40.133Z,50.13
2019-02-20T15:22:04.539Z,49.55
2019-02-20T15:24:28.972Z,51.97
2019-02-20T15:26:53.448Z,52.99
2019-02-20T15:29:17.993Z,52.49
2019-02-20T15:31:42.685Z,52.97
2019-02-20T15:34:07.089Z,53.51
2019-02-20T15:36:31.502Z,53.11
2019-02-20T15:38:55.905Z,50.33
2019-02-20T15:41:20.332Z,51.17
2019-02-20T15:43:44.735Z,51.97
2019-02-20T15:48:45.301Z,50.93
2019-02-20T15:53:49.363Z,51.87
2019-02-20T15:56:13.846Z,52.78
2019-02-20T15:58:38.250Z,52.29
2019-02-20T16:01:02.839Z,52.70
2019-02-20T16:03:27.299Z,52.68
2019-02-20T16:05:51.772Z,52.84
2019-02-20T16:08:16.165Z,52.75
2019-02-20T16:10:40.628Z,53.82
2019-02-20T16:13:05.145Z,53.41
2019-02-20T16:15:29.891Z,52.93
2019-02-20T16:17:54.559Z,52.57
2019-02-20T16:20:18.967Z,53.02
2019-02-20T16:25:19.404Z,53.50
2019-02-20T16:27:55.839Z,54.05
2019-02-20T16:30:20.305Z,54.32
2019-02-20T16:32:44.712Z,54.63
2019-02-20T16:35:16.666Z,54.68
2019-02-20T16:37:41.181Z,54.34
2019-02-20T16:45:38.139Z,53.78
2019-02-20T16:48:02.655Z,52.36
2019-02-20T16:50:27.142Z,52.30
2019-02-20T16:52:51.647Z,52.96
2019-02-20T16:55:19.080Z,52.46
2019-02-20T17:00:24.407Z,51.25
2019-02-20T17:02:59.606Z,51.12
2019-02-20T17:05:24.049Z,51.43
2019-02-20T17:10:24.597Z,51.50
2019-02-20T17:28:47.184Z,52.46
2019-02-20T17:33:47.692Z,51.78
2019-02-20T17:36:12.336Z,51.87
2019-02-20T17:38:36.731Z,52.77
2019-02-20T17:41:01.214Z,52.22
2019-02-20T17:43:25.617Z,52.35
2019-02-20T17:45:50.045Z,53.08
2019-02-20T17:48:14.436Z,52.25
2019-02-20T17:50:38.860Z,52.42
2019-02-20T17:55:39.410Z,53.24
2019-02-20T17:58:04.048Z,52.53
2019-02-20T18:03:15.444Z,52.14
2019-02-20T18:05:39.877Z,52.70
2019-02-20T18:08:04.391Z,52.03
2019-02-20T18:10:28.874Z,52.98
2019-02-20T18:12:53.278Z,52.70
2019-02-20T18:15:28.636Z,52.74
2019-02-20T18:17:53.029Z,52.51
2019-02-20T18:20:17.521Z,53.26
2019-02-20T18:22:43.702Z,53.10
2019-02-20T18:25:27.048Z,52.34
2019-02-20T18:27:51.496Z,53.14
2019-02-20T18:33:12.303Z,52.91
2019-02-20T18:35:36.693Z,54.00
2019-02-20T18:38:01.134Z,53.68
2019-02-20T18:40:25.552Z,53.34
2019-02-20T18:42:50.059Z,54.11
2019-02-20T18:48:11.878Z,54.05
2019-02-20T18:50:36.277Z,53.32
2019-02-20T18:53:00.704Z,53.39
2019-02-20T18:55:25.188Z,53.76
2019-02-20T18:57:49.670Z,53.09
2019-02-20T19:00:45.096Z,53.44
2019-02-20T19:03:09.580Z,53.31
2019-02-20T19:05:34.200Z,53.59
2019-02-20T19:07:58.576Z,54.02
2019-02-20T19:13:58.155Z,54.29
2019-02-20T19:17:01.148Z,53.83
2019-02-20T19:19:37.369Z,53.79
2019-02-20T19:22:40.376Z,55.07
2019-02-20T19:25:43.379Z,55.13
2019-02-20T19:28:46.389Z,55.12
2019-02-20T19:31:49.389Z,54.81
2019-02-20T19:37:49.606Z,55.21
2019-02-20T19:40:52.625Z,55.01
2019-02-20T19:43:55.639Z,55.82
2019-02-20T19:46:58.628Z,55.88
2019-02-20T19:50:01.610Z,56.67
2019-02-20T19:58:58.344Z,55.32
2019-02-20T20:02:01.324Z,55.63
2019-02-20T20:08:01.490Z,56.21
2019-02-20T20:13:45.924Z,55.21
2019-02-20T20:16:50.920Z,56.03
2019-02-20T20:19:33.046Z,56.12
2019-02-20T20:22:36.064Z,55.85
2019-02-20T20:28:36.293Z,56.08
2019-02-20T20:34:35.895Z,57.46
2019-02-20T20:37:21.114Z,57.07
2019-02-20T20:43:20.668Z,57.45
2019-02-20T20:52:16.821Z,57.30
2019-02-20T20:55:19.915Z,57.25
2019-02-20T20:58:22.916Z,56.57
2019-02-20T21:01:25.960Z,57.04
2019-02-20T21:04:29.712Z,57.84
2019-02-20T21:13:26.687Z,57.13
2019-02-20T21:22:23.262Z,57.31
2019-02-20T21:25:26.268Z,56.78
2019-02-20T21:28:29.281Z,56.86
2019-02-20T21:31:32.280Z,56.17
2019-02-20T21:54:45.557Z,55.80
2019-02-20T22:00:45.721Z,56.06
2019-02-20T22:03:22.665Z,56.12
2019-02-20T22:15:15.784Z,56.50
2019-02-20T22:18:01.015Z,56.14
2019-02-20T22:20:46.252Z,56.31
2019-02-20T22:23:31.444Z,56.12
2019-02-20T22:26:16.696Z,56.68
2019-02-20T22:32:16.514Z,56.72
2019-02-20T22:35:19.551Z,56.52
2019-02-20T22:38:22.566Z,56.43
2019-02-20T22:41:17.803Z,56.32
2019-02-20T22:44:20.819Z,56.73
2019-02-20T22:47:23.851Z,57.00
2019-02-20T22:50:26.850Z,57.28
2019-02-20T22:56:27.190Z,58.92
2019-02-20T23:02:27.421Z,58.27
2019-02-20T23:11:24.450Z,58.05
2019-02-20T23:14:27.438Z,58.77
2019-02-20T23:16:51.871Z,57.69
2019-02-20T23:19:16.279Z,58.18
2019-02-20T23:21:46.709Z,57.94
2019-02-20T23:24:11.116Z,59.26
2019-02-20T23:26:35.552Z,59.47
2019-02-20T23:28:59.965Z,59.79
2019-02-20T23:31:24.457Z,59.65
2019-02-20T23:36:25.215Z,59.75
2019-02-20T23:38:49.623Z,60.05
2019-02-20T23:41:14.053Z,60.04
2019-02-20T23:43:38.526Z,58.93
2019-02-20T23:46:02.892Z,59.71
2019-02-20T23:48:27.340Z,59.75
2019-02-20T23:50:51.759Z,59.78
2019-02-20T23:53:18.662Z,59.89
2019-02-20T23:55:47.982Z,59.17
2019-02-20T23:58:12.418Z,59.03
